Time;durP1;ratioP1;P1;durP2;ratioP2;P2;SDS_P1;SDS_P2;PMS_P1;PMS_P2;Temp;Humidity;BMP_temperature;BMP_pressure;BME280_temperature;BME280_humidity;BME280_pressure;Samples;Min_cycle;Max_cycle;Signal;HPM_P1;HPM_P2
2021/07/02 00:02:01;;;;;;;17.73;13.23;;;;;;;23.71;66.74;98484.06;5110834;27;20909;-80
2021/07/02 00:04:39;;;;;;;13.80;12.10;;;;;;;23.73;66.93;98481.91;5110603;27;20380;-80
2021/07/02 00:07:18;;;;;;;14.27;12.30;;;;;;;23.78;67.42;98501.19;5172816;27;20129;-78
2021/07/02 00:09:55;;;;;;;16.00;13.38;;;;;;;23.80;67.58;98493.59;5110964;27;20388;-78
2021/07/02 00:12:33;;;;;;;16.30;13.27;;;;;;;23.79;67.89;98489.22;5110799;27;20917;-79
2021/07/02 00:15:12;;;;;;;19.05;11.38;;;;;;;23.74;67.97;98478.16;5110956;27;20879;-78
2021/07/02 00:17:50;;;;;;;19.17;12.00;;;;;;;23.79;68.43;98483.75;5110869;27;20387;-77
2021/07/02 00:20:28;;;;;;;19.00;10.88;;;;;;;23.75;68.65;98486.09;5110877;27;20959;-77
2021/07/02 00:23:06;;;;;;;19.10;12.40;;;;;;;23.73;68.83;98488.25;5110978;27;20396;-77
2021/07/02 00:25:44;;;;;;;18.52;10.52;;;;;;;23.72;69.17;98499.38;5111022;27;20391;-77
2021/07/02 00:28:24;;;;;;;17.27;12.30;;;;;;;23.78;69.05;98498.47;5110876;27;20376;-77
2021/07/02 00:31:01;;;;;;;15.13;11.40;;;;;;;23.79;69.07;98505.56;5071194;28;20131;-78
2021/07/02 00:33:39;;;;;;;14.55;11.45;;;;;;;23.79;68.86;98508.31;5111062;27;20384;-80
2021/07/02 00:36:17;;;;;;;18.42;11.35;;;;;;;23.77;69.19;98515.91;5070682;28;20379;-79
2021/07/02 00:38:56;;;;;;;15.85;11.48;;;;;;;23.69;69.42;98514.28;5110873;27;20380;-79
2021/07/02 00:41:35;;;;;;;16.23;11.48;;;;;;;23.65;69.51;98509.50;5110728;27;20387;-79
2021/07/02 00:44:17;;;;;;;20.73;10.65;;;;;;;23.68;69.15;98515.34;5172797;27;20564;-79
2021/07/02 00:46:55;;;;;;;18.60;10.88;;;;;;;23.69;69.08;98513.47;5111001;27;20384;-79
2021/07/02 00:49:37;;;;;;;15.32;9.82;;;;;;;23.67;69.24;98501.94;5111012;27;20391;-80
2021/07/02 00:52:16;;;;;;;12.20;9.90;;;;;;;23.73;69.05;98503.75;5110734;27;20377;-80
2021/07/02 00:54:54;;;;;;;13.43;9.45;;;;;;;23.69;68.97;98499.81;5111001;27;20392;-79
2021/07/02 00:57:36;;;;;;;16.83;9.50;;;;;;;23.71;68.94;98494.97;5110944;27;20399;-79
2021/07/02 01:00:14;;;;;;;13.73;9.25;;;;;;;23.69;68.67;98489.72;5110952;27;20387;-80
2021/07/02 01:02:52;;;;;;;19.08;9.55;;;;;;;23.73;68.77;98492.84;5110864;27;20377;-81
2021/07/02 01:05:30;;;;;;;11.27;9.55;;;;;;;23.60;69.12;98490.25;5110913;27;20391;-80
2021/07/02 01:08:08;;;;;;;11.10;9.07;;;;;;;23.51;69.06;98489.72;5110851;27;20407;-79
2021/07/02 01:10:47;;;;;;;15.05;9.70;;;;;;;23.57;69.03;98487.97;5110843;27;20388;-78
2021/07/02 01:13:25;;;;;;;12.48;8.93;;;;;;;23.59;69.10;98486.69;5110642;27;20387;-80
2021/07/02 01:16:04;;;;;;;13.63;9.15;;;;;;;23.61;68.88;98483.72;5111047;27;20392;-81
2021/07/02 01:18:44;;;;;;;13.20;8.57;;;;;;;23.69;68.63;98483.44;5070645;28;20379;-78
2021/07/02 01:21:23;;;;;;;14.40;9.10;;;;;;;23.68;68.54;98477.16;5110998;27;20387;-77
2021/07/02 01:24:03;;;;;;;12.95;8.45;;;;;;;23.68;68.57;98479.06;5110792;27;20376;-78
2021/07/02 01:26:41;;;;;;;12.07;8.38;;;;;;;23.77;68.15;98483.16;5110849;27;20407;-79
2021/07/02 01:29:19;;;;;;;12.70;7.93;;;;;;;23.81;67.63;98469.84;5111011;27;20377;-78
2021/07/02 01:32:10;;;;;;;8.32;7.10;;;;;;;23.91;67.14;98484.63;5110739;27;20409;-81
2021/07/02 01:34:49;;;;;;;16.40;7.53;;;;;;;24.01;66.87;98472.34;5110973;27;20376;-79
2021/07/02 01:37:27;;;;;;;9.77;7.53;;;;;;;23.98;66.26;98460.81;5110848;27;20392;-79
2021/07/02 01:40:07;;;;;;;9.60;8.20;;;;;;;23.91;66.81;98465.53;5090417;27;20374;-79
2021/07/02 01:42:45;;;;;;;14.48;9.48;;;;;;;23.81;66.92;98464.41;5110784;27;20380;-78
2021/07/02 01:45:23;;;;;;;16.05;9.70;;;;;;;23.75;67.04;98460.72;5110979;27;20395;-81
2021/07/02 01:48:01;;;;;;;13.57;9.40;;;;;;;23.75;67.33;98457.97;5110786;27;20384;-79
2021/07/02 01:50:41;;;;;;;17.92;9.90;;;;;;;23.79;67.30;98470.09;5110802;27;20878;-82
2021/07/02 01:53:24;;;;;;;15.10;10.50;;;;;;;23.83;67.35;98462.28;5110943;27;20376;-78
2021/07/02 01:56:04;;;;;;;21.70;11.43;;;;;;;23.86;67.11;98453.66;5111079;27;20395;-79
2021/07/02 01:58:44;;;;;;;17.10;10.20;;;;;;;24.01;66.83;98450.50;5110796;27;20890;-77
2021/07/02 02:01:33;;;;;;;14.60;10.55;;;;;;;24.11;66.61;98461.69;5131596;27;20435;-76
2021/07/02 02:04:16;;;;;;;18.05;10.45;;;;;;;24.15;66.50;98458.28;5111038;27;20371;-77
2021/07/02 02:06:54;;;;;;;20.98;11.25;;;;;;;24.10;66.44;98455.41;5090320;28;20381;-77
2021/07/02 02:09:33;;;;;;;20.73;10.88;;;;;;;24.15;66.67;98458.28;5110170;27;20400;-78
2021/07/02 02:12:11;;;;;;;23.55;11.13;;;;;;;24.23;66.15;98455.22;5110659;27;20381;-80
2021/07/02 02:14:57;;;;;;;21.33;11.27;;;;;;;24.18;66.61;98446.03;5110851;27;20370;-79
2021/07/02 02:17:35;;;;;;;21.08;11.63;;;;;;;24.22;66.40;98453.56;5110745;27;20414;-80
2021/07/02 02:20:14;;;;;;;17.42;10.70;;;;;;;24.24;66.52;98451.41;5110697;27;20387;-79
2021/07/02 02:22:52;;;;;;;19.45;10.85;;;;;;;24.22;66.91;98441.78;5110811;27;20388;-80
2021/07/02 02:25:31;;;;;;;13.55;10.00;;;;;;;24.26;66.77;98453.94;5110779;27;20388;-79
2021/07/02 02:28:09;;;;;;;15.82;9.68;;;;;;;24.45;66.36;98458.28;5110656;27;20186;-81
2021/07/02 02:30:46;;;;;;;15.52;9.10;;;;;;;24.64;66.12;98455.47;5110718;27;20886;-79
2021/07/02 02:33:24;;;;;;;18.70;10.18;;;;;;;24.77;65.24;98449.78;5110681;27;20403;-80
2021/07/02 02:36:04;;;;;;;12.55;9.43;;;;;;;24.85;65.06;98446.69;5110893;27;20743;-81
2021/07/02 02:38:42;;;;;;;16.65;9.77;;;;;;;24.99;64.69;98462.88;5110410;27;20716;-80
2021/07/02 02:41:21;;;;;;;11.70;8.70;;;;;;;25.05;63.92;98453.69;5110710;27;20392;-80
2021/07/02 02:43:59;;;;;;;11.32;8.25;;;;;;;25.12;63.54;98463.47;5110595;27;20392;-79
2021/07/02 02:46:37;;;;;;;11.40;6.95;;;;;;;25.10;62.97;98456.59;5110660;27;20384;-81
2021/07/02 02:49:15;;;;;;;7.90;5.40;;;;;;;25.03;62.29;98458.59;5103871;27;20395;-81
2021/07/02 02:51:53;;;;;;;6.95;5.30;;;;;;;25.12;61.59;98457.19;5110425;27;20376;-80
2021/07/02 02:54:37;;;;;;;12.00;5.68;;;;;;;25.15;61.17;98468.47;5110631;27;20376;-81
2021/07/02 02:57:15;;;;;;;18.35;5.60;;;;;;;25.22;61.25;98462.91;5110413;27;20383;-83
2021/07/02 02:59:56;;;;;;;9.10;5.50;;;;;;;25.29;60.71;98466.34;5110680;27;20380;-81
2021/07/02 03:02:34;;;;;;;14.65;6.90;;;;;;;25.32;60.67;98456.84;5110676;27;20384;-83
2021/07/02 03:05:12;;;;;;;10.30;5.38;;;;;;;25.43;60.27;98465.03;5110293;27;20924;-82
2021/07/02 03:07:53;;;;;;;9.77;5.45;;;;;;;25.49;60.00;98463.22;5110022;27;20403;-83
2021/07/02 03:10:33;;;;;;;10.13;5.60;;;;;;;25.60;59.55;98469.75;5111060;27;20402;-79
2021/07/02 03:13:14;;;;;;;7.30;5.40;;;;;;;25.70;60.09;98469.13;5193247;27;20220;-78
2021/07/02 03:15:52;;;;;;;13.60;5.97;;;;;;;25.81;59.73;98463.66;5110487;27;20387;-81
2021/07/02 03:18:30;;;;;;;8.20;5.65;;;;;;;25.90;59.46;98475.88;5110439;27;20387;-81
2021/07/02 03:21:08;;;;;;;11.68;5.90;;;;;;;26.04;58.97;98475.59;5110824;27;20383;-80
2021/07/02 03:23:48;;;;;;;11.45;5.38;;;;;;;26.16;58.52;98468.16;5193874;27;20216;-77
2021/07/02 03:26:27;;;;;;;11.07;5.35;;;;;;;26.23;58.72;98463.38;5070501;28;20386;-78
2021/07/02 03:29:06;;;;;;;14.00;5.72;;;;;;;26.21;59.42;98464.69;5110799;27;20723;-80
2021/07/02 03:31:44;;;;;;;16.67;6.60;;;;;;;26.19;59.88;98455.91;5110527;27;20744;-78
2021/07/02 03:34:25;;;;;;;15.93;6.28;;;;;;;26.14;59.92;98459.38;5172690;27;19927;-79
2021/07/02 03:37:05;;;;;;;14.45;6.30;;;;;;;26.13;60.46;98463.16;5110590;27;20384;-78
2021/07/02 03:39:48;;;;;;;9.93;5.70;;;;;;;26.12;60.68;98462.34;5110975;27;20391;-76
2021/07/02 03:42:26;;;;;;;9.02;5.60;;;;;;;26.12;59.60;98461.50;5111462;27;20388;-80
2021/07/02 03:45:08;;;;;;;9.32;5.95;;;;;;;26.23;59.47;98463.38;5110742;27;20878;-81
2021/07/02 03:47:48;;;;;;;9.05;5.72;;;;;;;26.45;58.55;98466.25;5110099;27;20388;-80
2021/07/02 03:50:27;;;;;;;9.23;5.82;;;;;;;26.67;57.60;98458.16;5172900;27;20130;-80
2021/07/02 03:53:09;;;;;;;11.48;6.28;;;;;;;26.77;57.33;98469.28;5110760;27;20905;-79
2021/07/02 03:55:47;;;;;;;11.27;6.70;;;;;;;26.86;57.33;98467.78;5070310;28;20379;-83
2021/07/02 03:58:25;;;;;;;12.38;6.47;;;;;;;27.01;57.16;98456.22;5111902;27;20399;-78
2021/07/02 04:01:05;;;;;;;14.48;6.18;;;;;;;27.01;57.16;98458.97;5110480;27;20380;-80
2021/07/02 04:03:43;;;;;;;8.85;5.55;;;;;;;27.02;57.09;98466.13;5110651;27;20887;-79
2021/07/02 04:06:21;;;;;;;7.68;5.68;;;;;;;27.07;56.74;98468.91;5110060;27;20921;-78
2021/07/02 04:09:00;;;;;;;6.63;5.40;;;;;;;27.02;57.96;98457.88;5172824;27;20572;-78
2021/07/02 04:11:38;;;;;;;13.35;6.45;;;;;;;27.22;57.68;98471.09;5090187;27;20726;-79
2021/07/02 04:14:16;;;;;;;6.55;5.28;;;;;;;27.41;56.99;98459.84;5109736;27;20384;-80
2021/07/02 04:16:55;;;;;;;11.88;6.20;;;;;;;27.41;57.21;98462.59;5128946;27;20132;-78
2021/07/02 04:19:33;;;;;;;10.07;5.50;;;;;;;27.59;57.13;98459.53;5109651;27;20415;-77
2021/07/02 04:22:11;;;;;;;11.93;5.40;;;;;;;27.78;56.12;98455.41;5109694;27;20376;-78
2021/07/02 04:24:50;;;;;;;8.68;5.32;;;;;;;27.89;55.75;98458.28;5130431;27;20885;-78
2021/07/02 04:27:27;;;;;;;6.95;5.60;;;;;;;27.94;55.67;98458.34;5109942;27;20384;-80
2021/07/02 04:30:06;;;;;;;10.52;5.43;;;;;;;28.01;55.32;98464.47;5110292;27;20383;-79
2021/07/02 04:32:44;;;;;;;13.43;5.35;;;;;;;27.92;55.11;98466.03;5110886;27;20393;-78
2021/07/02 04:35:22;;;;;;;9.65;5.50;;;;;;;28.04;55.37;98463.97;5193495;27;20188;-78
2021/07/02 04:38:00;;;;;;;8.50;4.88;;;;;;;28.07;55.26;98463.44;5110963;27;20704;-79
2021/07/02 04:40:38;;;;;;;7.60;5.47;;;;;;;28.16;54.74;98467.38;5110838;27;20387;-80
2021/07/02 04:43:16;;;;;;;10.95;4.82;;;;;;;28.29;54.33;98469.75;5110832;27;20389;-79
2021/07/02 04:45:55;;;;;;;10.02;5.53;;;;;;;28.43;53.58;98459.16;5110516;27;20388;-78
2021/07/02 04:48:33;;;;;;;37.05;7.90;;;;;;;28.55;53.21;98461.78;5110405;27;20384;-78
2021/07/02 04:51:11;;;;;;;10.02;4.72;;;;;;;28.63;52.55;98468.72;5110841;27;20743;-79
2021/07/02 04:53:49;;;;;;;11.23;4.50;;;;;;;28.43;52.58;98461.91;5110665;27;20739;-78
2021/07/02 04:56:27;;;;;;;8.23;4.55;;;;;;;28.39;52.28;98460.78;5070262;28;20383;-79
2021/07/02 04:59:05;;;;;;;8.68;4.35;;;;;;;28.39;51.47;98457.22;5070317;28;20383;-79
2021/07/02 05:01:44;;;;;;;8.05;4.35;;;;;;;28.58;50.39;98466.72;5070229;28;20893;-79
2021/07/02 05:04:22;;;;;;;4.85;4.30;;;;;;;28.76;49.53;98469.09;5110740;27;20735;-79
2021/07/02 05:07:02;;;;;;;7.22;3.92;;;;;;;28.73;48.23;98453.13;5110639;27;20719;-78
2021/07/02 05:09:40;;;;;;;7.38;4.68;;;;;;;28.93;48.67;98457.16;5110381;27;20383;-79
2021/07/02 05:12:18;;;;;;;9.73;4.03;;;;;;;29.11;46.68;98450.41;5110511;27;20408;-78
2021/07/02 05:14:56;;;;;;;4.57;3.47;;;;;;;29.23;46.10;98456.56;5110550;27;20384;-79
2021/07/02 05:17:35;;;;;;;12.32;3.63;;;;;;;29.42;46.16;98451.44;5110796;27;20727;-78
2021/07/02 05:20:13;;;;;;;6.28;4.10;;;;;;;29.48;46.61;98442.91;5110902;27;20755;-79
2021/07/02 05:22:51;;;;;;;8.63;4.22;;;;;;;29.83;46.42;98441.47;5110591;27;20739;-78
2021/07/02 05:25:30;;;;;;;8.27;4.13;;;;;;;29.95;45.70;98438.47;5070069;28;20734;-78
2021/07/02 05:28:07;;;;;;;5.28;4.35;;;;;;;29.98;45.92;98436.00;5111117;27;20388;-79
2021/07/02 05:30:46;;;;;;;4.15;3.67;;;;;;;30.03;45.57;98437.94;5172713;27;20174;-80
2021/07/02 05:33:24;;;;;;;6.57;3.90;;;;;;;29.97;45.27;98431.56;5110759;27;20743;-78
2021/07/02 05:36:04;;;;;;;4.03;3.35;;;;;;;29.92;45.05;98436.25;5131500;27;20334;-79
2021/07/02 05:38:43;;;;;;;7.45;3.60;;;;;;;30.20;45.18;98433.06;5131100;27;20390;-80
2021/07/02 05:41:19;;;;;;;6.13;3.40;;;;;;;30.41;44.14;98436.66;5099773;27;1552062;-81
2021/07/02 05:43:57;;;;;;;6.93;3.25;;;;;;;30.49;43.52;98435.28;5110388;27;20117;-78
2021/07/02 05:46:35;;;;;;;8.95;3.38;;;;;;;30.51;42.75;98437.78;5111062;27;20395;-78
2021/07/02 05:49:15;;;;;;;4.53;3.38;;;;;;;30.51;42.31;98441.38;5110588;27;20380;-78
2021/07/02 05:51:53;;;;;;;5.63;3.40;;;;;;;30.49;42.61;98436.09;5090181;27;20749;-79
2021/07/02 05:54:31;;;;;;;7.40;3.40;;;;;;;30.60;42.31;98442.47;5151436;27;20385;-80
2021/07/02 05:57:10;;;;;;;9.93;4.00;;;;;;;30.67;42.75;98443.00;5110517;27;20739;-81
2021/07/02 05:59:48;;;;;;;5.57;3.42;;;;;;;30.76;40.68;98436.97;5131060;27;20121;-80
2021/07/02 06:02:26;;;;;;;3.88;2.45;;;;;;;30.85;40.05;98438.09;5130765;27;20382;-79
2021/07/02 06:05:04;;;;;;;5.40;2.92;;;;;;;31.05;40.58;98427.00;5110134;27;20388;-77
2021/07/02 06:07:47;;;;;;;10.45;3.30;;;;;;;31.25;40.31;98428.06;5110951;27;20380;-78
2021/07/02 06:10:26;;;;;;;7.13;3.30;;;;;;;31.24;40.31;98435.53;5111000;27;20913;-78
2021/07/02 06:13:03;;;;;;;5.82;3.10;;;;;;;30.97;40.74;98435.88;5110802;27;20383;-79
2021/07/02 06:15:42;;;;;;;6.47;3.17;;;;;;;30.81;40.62;98431.47;5111003;27;20423;-78
2021/07/02 06:18:24;;;;;;;4.05;2.80;;;;;;;31.00;40.79;98423.44;5110453;27;20391;-79
2021/07/02 06:21:03;;;;;;;5.72;3.60;;;;;;;31.37;39.74;98425.88;5110766;27;20902;-79
2021/07/02 06:23:41;;;;;;;5.13;2.40;;;;;;;31.49;38.57;98431.91;5110693;27;20385;-80
2021/07/02 06:26:20;;;;;;;6.63;2.72;;;;;;;31.33;37.41;98428.38;5110803;27;20384;-81
2021/07/02 06:28:58;;;;;;;7.63;1.90;;;;;;;31.26;35.03;98421.47;5090475;28;20121;-80
2021/07/02 06:31:35;;;;;;;6.00;2.10;;;;;;;31.58;35.06;98418.34;5110670;27;20380;-79
2021/07/02 06:34:17;;;;;;;2.38;2.00;;;;;;;31.85;33.82;98418.78;5110431;27;20370;-80
2021/07/02 06:36:55;;;;;;;5.30;2.10;;;;;;;31.84;31.69;98410.75;5110592;27;20380;-80
2021/07/02 06:39:49;;;;;;;5.20;1.70;;;;;;;31.97;32.55;98414.84;5111083;27;20388;-78
2021/07/02 06:42:26;;;;;;;5.55;1.98;;;;;;;32.21;33.01;98421.38;5110722;27;20377;-79
2021/07/02 06:45:11;;;;;;;6.40;2.25;;;;;;;32.51;32.46;98416.75;5111314;27;20388;-80
2021/07/02 06:47:51;;;;;;;10.23;2.10;;;;;;;32.49;32.77;98408.72;5110715;27;20369;-79
2021/07/02 06:50:33;;;;;;;4.72;2.10;;;;;;;32.47;32.77;98408.22;5105824;27;1399325;-79
2021/07/02 06:53:11;;;;;;;2.72;1.88;;;;;;;32.52;31.83;98415.63;5110923;27;20723;-78
2021/07/02 06:55:51;;;;;;;4.55;2.00;;;;;;;32.23;31.69;98410.00;5110797;27;20380;-79
2021/07/02 06:58:29;;;;;;;2.63;1.75;;;;;;;31.82;32.96;98412.97;5110798;27;20421;-78
2021/07/02 07:01:08;;;;;;;2.40;1.67;;;;;;;31.95;32.34;98400.50;5110315;27;20482;-78
2021/07/02 07:03:46;;;;;;;2.28;1.70;;;;;;;32.17;31.65;98407.28;5110856;27;20735;-78
2021/07/02 07:06:25;;;;;;;6.10;1.88;;;;;;;32.43;30.30;98418.19;5110431;27;20380;-77
2021/07/02 07:09:03;;;;;;;2.88;1.80;;;;;;;32.31;31.12;98410.25;5110619;27;20387;-77
2021/07/02 07:11:41;;;;;;;6.97;1.88;;;;;;;31.92;30.88;98408.25;5110828;27;20395;-80
2021/07/02 07:14:19;;;;;;;2.47;1.63;;;;;;;31.76;30.45;98414.13;5110876;27;20396;-78
2021/07/02 07:16:59;;;;;;;2.40;1.55;;;;;;;32.00;30.51;98404.06;5152170;27;20123;-77
2021/07/02 07:19:37;;;;;;;3.08;1.50;;;;;;;32.11;29.89;98400.13;5110111;27;20879;-79
2021/07/02 07:22:28;;;;;;;3.53;1.55;;;;;;;32.15;29.87;98406.72;5110489;27;20421;-79
2021/07/02 07:25:06;;;;;;;2.90;1.45;;;;;;;31.86;30.10;98408.59;5110796;27;20384;-78
2021/07/02 07:27:44;;;;;;;3.33;1.80;;;;;;;32.33;30.33;98407.19;5110791;27;20392;-77
2021/07/02 07:30:22;;;;;;;4.55;1.52;;;;;;;33.02;30.17;98414.38;5110641;27;20909;-78
2021/07/02 07:33:12;;;;;;;3.08;1.70;;;;;;;33.51;28.79;98413.34;5110508;27;20405;-78
2021/07/02 07:35:51;;;;;;;7.50;1.50;;;;;;;33.32;28.79;98417.94;5110641;27;20380;-80
2021/07/02 07:38:29;;;;;;;2.10;1.60;;;;;;;33.65;29.01;98407.06;5110606;27;20751;-78
2021/07/02 07:41:07;;;;;;;3.08;2.55;;;;;;;33.91;28.37;98404.78;5172849;27;20565;-77
2021/07/02 07:43:48;;;;;;;6.88;1.80;;;;;;;34.00;28.31;98405.78;5111039;27;20779;-78
2021/07/02 07:46:28;;;;;;;2.67;1.52;;;;;;;34.16;28.44;98398.09;5111263;27;20387;-79
2021/07/02 07:49:06;;;;;;;6.63;1.90;;;;;;;34.20;27.95;98402.72;5110908;27;20391;-78
2021/07/02 07:51:49;;;;;;;3.15;1.70;;;;;;;34.01;28.55;98401.91;5131802;27;20127;-77
2021/07/02 07:54:27;;;;;;;4.25;1.60;;;;;;;33.95;28.45;98397.50;5090322;27;20911;-78
2021/07/02 07:57:06;;;;;;;6.07;1.70;;;;;;;33.91;28.33;98408.38;5110620;27;20391;-79
2021/07/02 07:59:45;;;;;;;5.00;2.00;;;;;;;33.79;28.16;98402.44;5110496;27;20738;-78
2021/07/02 08:02:23;;;;;;;2.08;1.50;;;;;;;33.73;27.83;98395.31;5110960;27;20381;-79
2021/07/02 08:05:05;;;;;;;3.35;1.50;;;;;;;33.89;28.08;98388.47;5110799;27;20392;-81
2021/07/02 08:07:44;;;;;;;4.53;1.50;;;;;;;33.93;28.08;98395.06;5131335;27;20124;-79
2021/07/02 08:10:25;;;;;;;4.88;1.83;;;;;;;33.80;28.00;98368.06;5110763;27;20392;-79
2021/07/02 08:13:16;;;;;;;3.90;1.60;;;;;;;33.66;27.63;98383.75;5006920;27;20387;-78
2021/07/02 08:15:55;;;;;;;6.97;1.52;;;;;;;33.24;28.03;98377.88;5110408;27;20387;-80
2021/07/02 08:18:32;;;;;;;1.83;1.45;;;;;;;33.01;28.54;98385.03;5110505;27;20380;-80
2021/07/02 08:21:12;;;;;;;8.75;1.90;;;;;;;32.85;28.30;98392.66;5111051;27;20388;-79
2021/07/02 08:23:52;;;;;;;2.55;1.70;;;;;;;32.82;28.54;98376.63;5110690;27;20388;-78
2021/07/02 08:26:30;;;;;;;1.60;1.50;;;;;;;33.10;28.33;98386.06;5173114;27;20178;-80
2021/07/02 08:29:23;;;;;;;2.55;1.60;;;;;;;33.33;28.15;98383.59;5173210;27;20727;-79
2021/07/02 08:32:01;;;;;;;3.13;1.40;;;;;;;33.57;27.55;98376.13;5111094;27;20727;-78
2021/07/02 08:34:39;;;;;;;2.28;1.60;;;;;;;34.20;27.62;98374.16;5110862;27;20384;-79
2021/07/02 08:37:17;;;;;;;5.40;1.40;;;;;;;34.90;27.02;98374.09;5111018;27;20384;-79
2021/07/02 08:39:55;;;;;;;2.45;1.60;;;;;;;35.50;26.07;98371.31;5110889;27;20908;-78
2021/07/02 08:42:34;;;;;;;1.35;1.27;;;;;;;35.79;25.51;98372.13;5110727;27;20387;-80
2021/07/02 08:45:12;;;;;;;1.40;1.30;;;;;;;35.83;25.31;98379.50;5110849;27;20399;-78
2021/07/02 08:47:52;;;;;;;3.63;1.52;;;;;;;35.79;25.56;98384.06;5111005;27;20380;-78
2021/07/02 08:50:31;;;;;;;3.97;1.50;;;;;;;35.78;25.66;98385.19;5110726;27;20384;-78
2021/07/02 08:53:08;;;;;;;4.90;1.80;;;;;;;36.15;25.38;98374.94;5090542;27;20400;-79
2021/07/02 08:55:46;;;;;;;10.40;2.22;;;;;;;35.81;25.28;98381.81;5111272;27;20384;-78
2021/07/02 08:58:25;;;;;;;4.10;1.35;;;;;;;35.45;25.93;98378.91;5111145;27;20717;-79
2021/07/02 09:01:09;;;;;;;2.15;1.63;;;;;;;35.32;25.83;98385.28;5070187;28;20391;-79
2021/07/02 09:03:46;;;;;;;5.85;1.63;;;;;;;34.82;26.31;98377.59;5110794;27;20388;-78
2021/07/02 09:06:24;;;;;;;2.30;1.30;;;;;;;34.66;26.14;98379.81;5110292;27;20898;-78
2021/07/02 09:09:07;;;;;;;3.50;1.50;;;;;;;34.80;26.13;98368.75;5110735;27;20384;-78
2021/07/02 09:11:49;;;;;;;2.83;1.50;;;;;;;34.51;26.56;98355.91;5110543;27;20382;-79
2021/07/02 09:14:27;;;;;;;5.60;1.65;;;;;;;34.63;26.51;98371.28;5110589;27;20113;-79
2021/07/02 09:17:12;;;;;;;3.88;1.75;;;;;;;35.00;26.35;98356.47;5131690;27;20387;-79
2021/07/02 09:20:16;;;;;;;2.55;1.48;;;;;;;35.44;25.79;98369.75;5110979;27;20371;-77
2021/07/02 09:23:01;;;;;;;5.18;1.50;;;;;;;35.93;25.37;98367.34;5110496;27;20376;-78
2021/07/02 09:25:51;;;;;;;3.75;1.50;;;;;;;36.14;25.44;98362.97;5110987;27;20125;-78
2021/07/02 09:28:31;;;;;;;6.18;1.60;;;;;;;36.33;25.13;98360.00;5110855;27;20365;-78
2021/07/02 09:31:09;;;;;;;2.70;1.48;;;;;;;36.71;24.62;98365.22;5131211;27;20578;-79
2021/07/02 09:33:47;;;;;;;2.17;1.30;;;;;;;36.87;23.98;98372.03;5131569;27;20912;-78
2021/07/02 09:36:29;;;;;;;1.40;1.30;;;;;;;36.23;24.48;98365.84;5070598;28;20395;-78
2021/07/02 09:39:27;;;;;;;7.85;1.80;;;;;;;36.25;24.75;98357.97;5090656;27;20876;-77
2021/07/02 09:42:07;;;;;;;10.82;1.70;;;;;;;36.56;24.39;98368.38;5110941;27;20376;-77
2021/07/02 09:45:02;;;;;;;5.50;1.52;;;;;;;36.53;24.25;98355.13;5110757;27;20888;-78
2021/07/02 09:47:41;;;;;;;2.20;1.50;;;;;;;36.60;24.43;98366.63;5110782;27;20380;-80
2021/07/02 09:50:37;;;;;;;4.63;1.35;;;;;;;36.12;25.19;98358.88;5092698;28;20126;-79
2021/07/02 09:53:11;;;;;;;3.22;1.40;;;;;;;36.17;24.31;98358.75;5098776;28;20044;-78
2021/07/02 09:55:51;;;;;;;8.88;1.70;;;;;;;36.22;24.59;98386.44;5092648;28;20407;-79
2021/07/02 09:58:21;;;;;;;2.72;1.30;;;;;;;35.99;24.62;98364.16;5092615;28;20048;-78
2021/07/02 10:00:49;;;;;;;2.40;1.30;;;;;;;36.59;24.26;98356.63;5110533;28;20054;-77
2021/07/02 10:03:16;;;;;;;5.13;1.65;;;;;;;37.29;23.70;98353.06;5109167;28;20139;-78
2021/07/02 10:05:47;;;;;;;1.20;1.10;;;;;;;37.12;22.87;98359.38;5108600;28;20050;-79
2021/07/02 10:08:14;;;;;;;3.40;1.20;;;;;;;36.53;23.96;98360.69;5092038;28;20478;-79
2021/07/02 10:10:40;;;;;;;6.25;1.40;;;;;;;35.31;25.42;98365.00;5110056;28;20039;-78
2021/07/02 10:13:06;;;;;;;1.95;1.23;;;;;;;34.68;26.37;98348.97;5108287;28;20051;-79
2021/07/02 10:15:32;;;;;;;4.20;1.38;;;;;;;34.59;26.20;98348.03;5109767;28;20126;-79
2021/07/02 10:17:59;;;;;;;9.25;1.58;;;;;;;34.41;26.99;98353.28;5108190;28;20058;-77
2021/07/02 10:20:28;;;;;;;13.30;2.05;;;;;;;34.25;26.94;98357.44;5092128;28;20040;-78
2021/07/02 10:22:56;;;;;;;4.60;1.80;;;;;;;34.39;27.22;98357.50;5108552;28;20048;-79
2021/07/02 10:25:23;;;;;;;8.38;1.48;;;;;;;35.06;26.28;98355.25;5108856;28;20097;-80
2021/07/02 10:27:49;;;;;;;6.15;1.52;;;;;;;35.87;25.76;98347.16;5108477;28;20122;-78
2021/07/02 10:30:15;;;;;;;6.53;1.50;;;;;;;36.75;24.34;98349.53;5074861;28;20118;-80
2021/07/02 10:32:42;;;;;;;6.85;1.42;;;;;;;36.91;24.44;98353.53;5108361;28;20139;-78
2021/07/02 10:35:08;;;;;;;7.05;1.40;;;;;;;37.33;23.82;98348.50;5058176;28;20198;-79
2021/07/02 10:37:34;;;;;;;2.15;1.30;;;;;;;38.42;22.65;98344.09;5091431;28;20040;-81
2021/07/02 10:40:00;;;;;;;1.20;1.10;;;;;;;37.86;22.96;98344.69;5108505;28;20040;-79
2021/07/02 10:42:29;;;;;;;1.45;1.15;;;;;;;37.73;23.02;98342.91;5091617;28;20393;-80
2021/07/02 10:44:55;;;;;;;3.85;1.10;;;;;;;38.59;22.81;98335.69;5091632;28;20048;-79
2021/07/02 10:47:21;;;;;;;2.53;1.13;;;;;;;38.78;22.10;98333.34;5109366;28;20210;-79
2021/07/02 10:49:48;;;;;;;4.75;1.50;;;;;;;38.29;22.60;98329.97;5109381;28;20043;-79
2021/07/02 10:52:27;;;;;;;2.25;1.40;;;;;;;37.20;23.23;98332.72;5108247;28;20048;-78
2021/07/02 10:54:54;;;;;;;1.60;1.30;;;;;;;36.22;23.94;98330.78;5108018;28;20059;-78
2021/07/02 10:57:21;;;;;;;4.47;1.65;;;;;;;36.35;24.08;98326.31;5053764;28;20490;-79
2021/07/02 10:59:50;;;;;;;7.43;1.20;;;;;;;37.28;22.75;98340.28;5094303;28;20040;-79
2021/07/02 11:02:20;;;;;;;3.92;1.30;;;;;;;37.67;22.63;98328.28;5094931;28;20350;-78
2021/07/02 11:04:47;;;;;;;10.38;1.60;;;;;;;38.52;21.97;98329.81;5094798;28;20043;-79
2021/07/02 11:07:22;;;;;;;8.25;1.27;;;;;;;38.18;21.19;98325.88;5095528;28;20578;-79
2021/07/02 11:09:48;;;;;;;2.45;1.00;;;;;;;38.06;21.01;98322.91;5094484;28;20063;-78
2021/07/02 11:12:30;;;;;;;4.47;1.20;;;;;;;38.06;21.62;98320.94;5095542;28;20039;-78
2021/07/02 11:14:58;;;;;;;3.15;1.00;;;;;;;38.89;20.78;98319.03;5077457;28;20051;-77
2021/07/02 11:17:34;;;;;;;3.05;0.88;;;;;;;38.86;20.23;98326.94;5093943;28;20055;-77
2021/07/02 11:22:35;;;;;;;6.65;1.60;;;;;;;38.31;20.96;98330.44;5095303;28;20104;-78
2021/07/02 11:27:49;;;;;;;6.88;1.02;;;;;;;39.38;19.28;98314.72;5094052;28;20411;-78
2021/07/02 11:30:18;;;;;;;1.50;0.90;;;;;;;39.41;19.58;98316.84;5095172;28;20036;-78
2021/07/02 11:32:45;;;;;;;1.40;1.20;;;;;;;39.17;19.56;98313.84;5076920;28;20036;-76
2021/07/02 11:35:21;;;;;;;3.67;1.10;;;;;;;39.45;19.08;98308.59;5093827;28;20465;-77
2021/07/02 11:38:20;;;;;;;1.67;0.98;;;;;;;40.12;18.83;98312.41;5076833;28;20048;-77
2021/07/02 11:40:48;;;;;;;5.65;1.02;;;;;;;40.83;18.11;98314.22;5074225;28;20407;-79
2021/07/02 11:43:16;;;;;;;0.98;0.98;;;;;;;41.10;18.28;98324.78;5093578;28;20066;-78
2021/07/02 11:45:43;;;;;;;7.82;0.93;;;;;;;41.56;17.71;98319.06;5060039;28;20431;-78
2021/07/02 11:48:21;;;;;;;6.57;1.10;;;;;;;41.52;17.65;98321.75;5093654;28;20040;-79
2021/07/02 11:50:54;;;;;;;8.80;1.30;;;;;;;41.36;17.68;98327.22;5094621;28;20486;-79
2021/07/02 11:53:40;;;;;;;2.03;0.80;;;;;;;41.59;16.98;98327.59;5060939;28;20074;-78
2021/07/02 11:56:09;;;;;;;4.28;0.80;;;;;;;41.76;17.43;98320.09;5093528;28;20048;-79
2021/07/02 11:58:37;;;;;;;2.83;0.95;;;;;;;41.92;16.72;98324.63;5076638;28;20077;-78
2021/07/02 12:01:09;;;;;;;;;;;;;;;41.81;16.85;98323.47;5094391;28;20137;-77
2021/07/02 12:03:46;;;;;;;2.25;0.85;;;;;;;41.56;16.88;98321.84;5093756;28;19969;-78
2021/07/02 12:06:26;;;;;;;5.17;0.93;;;;;;;42.76;16.35;98317.41;5061091;28;20399;-77
2021/07/02 12:09:04;;;;;;;1.63;0.80;;;;;;;43.68;15.75;98318.94;5077381;28;20048;-78
2021/07/02 12:11:32;;;;;;;5.45;0.90;;;;;;;44.37;15.41;98322.06;5092785;28;20551;-76
2021/07/02 12:13:58;;;;;;;2.25;0.88;;;;;;;44.85;14.89;98328.22;5076267;28;20047;-78
2021/07/02 12:16:49;;;;;;;6.57;1.02;;;;;;;44.28;14.85;98335.56;5042878;28;20550;-78
2021/07/02 12:19:18;;;;;;;1.48;0.82;;;;;;;43.35;15.41;98322.16;5092720;28;20048;-77
2021/07/02 12:21:54;;;;;;;6.15;1.10;;;;;;;43.79;15.62;98330.44;5092537;28;20044;-78
2021/07/02 12:24:25;;;;;;;5.47;1.10;;;;;;;43.58;15.00;98342.00;5059205;28;20050;-78